sensor_id;sensor_type;location;lat;lon;timestamp;temperature;humidity
14095;DHT22;18096;48.142;16.290;2022-07-05T00:00:20;20.40;87.60
14095;DHT22;18096;48.142;16.290;2022-07-05T00:02:46;20.40;87.40
14095;DHT22;18096;48.142;16.290;2022-07-05T00:05:12;20.30;87.30
14095;DHT22;18096;48.142;16.290;2022-07-05T00:07:37;20.30;87.50
14095;DHT22;18096;48.142;16.290;2022-07-05T00:10:04;20.20;87.40
14095;DHT22;18096;48.142;16.290;2022-07-05T00:12:32;20.10;87.30
14095;DHT22;18096;48.142;16.290;2022-07-05T00:14:59;20.10;87.50
14095;DHT22;18096;48.142;16.290;2022-07-05T00:17:25;20.10;87.70
14095;DHT22;18096;48.142;16.290;2022-07-05T00:19:50;20.00;87.70
14095;DHT22;18096;48.142;16.290;2022-07-05T00:22:16;20.00;87.60
14095;DHT22;18096;48.142;16.290;2022-07-05T00:24:42;19.90;87.50
14095;DHT22;18096;48.142;16.290;2022-07-05T00:27:07;19.90;87.60
14095;DHT22;18096;48.142;16.290;2022-07-05T00:29:33;19.90;87.40
14095;DHT22;18096;48.142;16.290;2022-07-05T00:31:59;19.90;87.30
14095;DHT22;18096;48.142;16.290;2022-07-05T00:34:24;19.90;87.40
14095;DHT22;18096;48.142;16.290;2022-07-05T00:36:50;19.90;87.10
14095;DHT22;18096;48.142;16.290;2022-07-05T00:39:16;19.90;87.00
14095;DHT22;18096;48.142;16.290;2022-07-05T00:41:42;19.90;86.80
14095;DHT22;18096;48.142;16.290;2022-07-05T00:44:10;19.80;86.30
14095;DHT22;18096;48.142;16.290;2022-07-05T00:46:37;19.80;86.40
14095;DHT22;18096;48.142;16.290;2022-07-05T00:49:05;19.80;86.00
14095;DHT22;18096;48.142;16.290;2022-07-05T00:51:32;19.80;86.10
14095;DHT22;18096;48.142;16.290;2022-07-05T00:53:59;19.70;86.00
14095;DHT22;18096;48.142;16.290;2022-07-05T00:56:26;19.70;86.20
14095;DHT22;18096;48.142;16.290;2022-07-05T00:58:52;19.70;86.20
14095;DHT22;18096;48.142;16.290;2022-07-05T01:01:18;19.60;86.20
14095;DHT22;18096;48.142;16.290;2022-07-05T01:03:45;19.70;86.20
14095;DHT22;18096;48.142;16.290;2022-07-05T01:06:12;19.60;86.20
14095;DHT22;18096;48.142;16.290;2022-07-05T01:08:41;19.60;86.30
14095;DHT22;18096;48.142;16.290;2022-07-05T01:11:08;19.60;86.00
14095;DHT22;18096;48.142;16.290;2022-07-05T01:13:36;19.60;85.70
14095;DHT22;18096;48.142;16.290;2022-07-05T01:16:03;19.60;85.70
14095;DHT22;18096;48.142;16.290;2022-07-05T01:18:29;19.60;85.60
14095;DHT22;18096;48.142;16.290;2022-07-05T01:20:57;19.60;85.30
14095;DHT22;18096;48.142;16.290;2022-07-05T01:23:26;19.60;85.10
14095;DHT22;18096;48.142;16.290;2022-07-05T01:25:52;19.60;85.20
14095;DHT22;18096;48.142;16.290;2022-07-05T01:28:20;19.60;85.50
14095;DHT22;18096;48.142;16.290;2022-07-05T01:30:47;19.60;85.70
14095;DHT22;18096;48.142;16.290;2022-07-05T01:33:13;19.60;85.60
14095;DHT22;18096;48.142;16.290;2022-07-05T01:35:39;19.50;85.00
14095;DHT22;18096;48.142;16.290;2022-07-05T01:38:05;19.60;85.30
14095;DHT22;18096;48.142;16.290;2022-07-05T01:40:31;19.50;85.20
14095;DHT22;18096;48.142;16.290;2022-07-05T01:42:57;19.50;85.20
14095;DHT22;18096;48.142;16.290;2022-07-05T01:45:23;19.50;85.00
14095;DHT22;18096;48.142;16.290;2022-07-05T01:48:09;19.50;84.90
14095;DHT22;18096;48.142;16.290;2022-07-05T01:51:00;19.50;84.80
14095;DHT22;18096;48.142;16.290;2022-07-05T01:53:31;19.50;85.00
14095;DHT22;18096;48.142;16.290;2022-07-05T01:56:00;19.50;85.40
14095;DHT22;18096;48.142;16.290;2022-07-05T01:58:27;19.50;85.60
14095;DHT22;18096;48.142;16.290;2022-07-05T02:00:54;19.40;85.70
14095;DHT22;18096;48.142;16.290;2022-07-05T02:03:20;19.40;85.80
14095;DHT22;18096;48.142;16.290;2022-07-05T02:05:46;19.40;85.90
14095;DHT22;18096;48.142;16.290;2022-07-05T02:08:13;19.40;85.80
14095;DHT22;18096;48.142;16.290;2022-07-05T02:10:40;19.40;85.70
14095;DHT22;18096;48.142;16.290;2022-07-05T02:13:07;19.40;85.50
14095;DHT22;18096;48.142;16.290;2022-07-05T02:15:42;19.40;85.40
14095;DHT22;18096;48.142;16.290;2022-07-05T02:18:08;19.40;85.40
14095;DHT22;18096;48.142;16.290;2022-07-05T02:20:35;19.40;85.60
14095;DHT22;18096;48.142;16.290;2022-07-05T02:23:03;19.40;85.90
14095;DHT22;18096;48.142;16.290;2022-07-05T02:25:28;19.30;86.00
14095;DHT22;18096;48.142;16.290;2022-07-05T02:27:54;19.30;86.10
14095;DHT22;18096;48.142;16.290;2022-07-05T02:30:21;19.30;86.00
14095;DHT22;18096;48.142;16.290;2022-07-05T02:32:46;19.30;86.10
14095;DHT22;18096;48.142;16.290;2022-07-05T02:35:13;19.30;85.90
14095;DHT22;18096;48.142;16.290;2022-07-05T02:37:39;19.40;86.10
14095;DHT22;18096;48.142;16.290;2022-07-05T02:40:09;19.30;86.20
14095;DHT22;18096;48.142;16.290;2022-07-05T02:42:39;19.30;86.20
14095;DHT22;18096;48.142;16.290;2022-07-05T02:45:06;19.40;86.80
14095;DHT22;18096;48.142;16.290;2022-07-05T02:47:33;19.40;86.10
14095;DHT22;18096;48.142;16.290;2022-07-05T02:50:03;19.40;86.10
14095;DHT22;18096;48.142;16.290;2022-07-05T02:52:29;19.40;86.00
14095;DHT22;18096;48.142;16.290;2022-07-05T02:54:54;19.40;85.80
14095;DHT22;18096;48.142;16.290;2022-07-05T02:57:20;19.40;85.80
14095;DHT22;18096;48.142;16.290;2022-07-05T02:59:45;19.40;85.50
14095;DHT22;18096;48.142;16.290;2022-07-05T03:02:11;19.40;85.50
14095;DHT22;18096;48.142;16.290;2022-07-05T03:04:37;19.40;85.40
14095;DHT22;18096;48.142;16.290;2022-07-05T03:07:02;19.40;85.30
14095;DHT22;18096;48.142;16.290;2022-07-05T03:09:28;19.50;85.30
14095;DHT22;18096;48.142;16.290;2022-07-05T03:11:54;19.50;85.30
14095;DHT22;18096;48.142;16.290;2022-07-05T03:14:20;19.50;85.30
14095;DHT22;18096;48.142;16.290;2022-07-05T03:16:45;19.50;85.30
14095;DHT22;18096;48.142;16.290;2022-07-05T03:19:11;19.50;85.60
14095;DHT22;18096;48.142;16.290;2022-07-05T03:21:37;19.50;85.70
14095;DHT22;18096;48.142;16.290;2022-07-05T03:24:02;19.50;85.80
14095;DHT22;18096;48.142;16.290;2022-07-05T03:26:28;19.50;86.00
14095;DHT22;18096;48.142;16.290;2022-07-05T03:28:54;19.40;86.00
14095;DHT22;18096;48.142;16.290;2022-07-05T03:31:20;19.40;86.20
14095;DHT22;18096;48.142;16.290;2022-07-05T03:33:46;19.40;86.20
14095;DHT22;18096;48.142;16.290;2022-07-05T03:36:11;19.40;85.80
14095;DHT22;18096;48.142;16.290;2022-07-05T03:38:37;19.50;86.00
14095;DHT22;18096;48.142;16.290;2022-07-05T03:41:03;19.50;86.20
14095;DHT22;18096;48.142;16.290;2022-07-05T03:43:29;19.50;86.00
14095;DHT22;18096;48.142;16.290;2022-07-05T03:45:55;19.60;85.80
14095;DHT22;18096;48.142;16.290;2022-07-05T03:48:21;19.60;85.90
14095;DHT22;18096;48.142;16.290;2022-07-05T03:50:47;19.70;85.70
14095;DHT22;18096;48.142;16.290;2022-07-05T03:53:13;19.80;85.60
14095;DHT22;18096;48.142;16.290;2022-07-05T03:55:39;19.90;85.50
14095;DHT22;18096;48.142;16.290;2022-07-05T03:58:04;20.00;85.40
14095;DHT22;18096;48.142;16.290;2022-07-05T04:00:30;20.10;85.10
14095;DHT22;18096;48.142;16.290;2022-07-05T04:02:55;20.20;85.00
14095;DHT22;18096;48.142;16.290;2022-07-05T04:05:21;20.30;84.30
14095;DHT22;18096;48.142;16.290;2022-07-05T04:07:54;20.30;83.90
14095;DHT22;18096;48.142;16.290;2022-07-05T04:10:22;20.40;83.80
14095;DHT22;18096;48.142;16.290;2022-07-05T04:12:47;20.40;83.50
14095;DHT22;18096;48.142;16.290;2022-07-05T04:15:13;20.50;82.30
14095;DHT22;18096;48.142;16.290;2022-07-05T04:17:50;20.50;82.30
14095;DHT22;18096;48.142;16.290;2022-07-05T04:20:16;20.50;82.10
14095;DHT22;18096;48.142;16.290;2022-07-05T04:22:42;20.60;82.00
14095;DHT22;18096;48.142;16.290;2022-07-05T04:25:08;20.60;81.20
14095;DHT22;18096;48.142;16.290;2022-07-05T04:27:51;20.70;81.50
14095;DHT22;18096;48.142;16.290;2022-07-05T04:30:19;20.70;81.00
14095;DHT22;18096;48.142;16.290;2022-07-05T04:32:45;20.70;80.60
14095;DHT22;18096;48.142;16.290;2022-07-05T04:35:11;20.70;80.80
14095;DHT22;18096;48.142;16.290;2022-07-05T04:37:38;20.70;80.60
14095;DHT22;18096;48.142;16.290;2022-07-05T04:40:05;20.80;80.50
14095;DHT22;18096;48.142;16.290;2022-07-05T04:42:31;20.70;80.50
14095;DHT22;18096;48.142;16.290;2022-07-05T04:44:57;20.70;81.10
14095;DHT22;18096;48.142;16.290;2022-07-05T04:47:23;20.70;80.60
14095;DHT22;18096;48.142;16.290;2022-07-05T04:49:48;20.70;80.40
14095;DHT22;18096;48.142;16.290;2022-07-05T04:52:14;20.80;80.90
14095;DHT22;18096;48.142;16.290;2022-07-05T04:54:40;20.90;80.10
14095;DHT22;18096;48.142;16.290;2022-07-05T04:57:05;20.90;79.70
14095;DHT22;18096;48.142;16.290;2022-07-05T04:59:31;20.90;79.70
14095;DHT22;18096;48.142;16.290;2022-07-05T05:01:57;20.90;79.80
14095;DHT22;18096;48.142;16.290;2022-07-05T05:04:22;20.90;79.40
14095;DHT22;18096;48.142;16.290;2022-07-05T05:06:48;21.00;80.00
14095;DHT22;18096;48.142;16.290;2022-07-05T05:09:14;21.20;79.30
14095;DHT22;18096;48.142;16.290;2022-07-05T05:11:39;21.10;79.30
14095;DHT22;18096;48.142;16.290;2022-07-05T05:14:05;21.30;79.30
14095;DHT22;18096;48.142;16.290;2022-07-05T05:16:31;21.40;79.00
14095;DHT22;18096;48.142;16.290;2022-07-05T05:18:56;21.50;79.20
14095;DHT22;18096;48.142;16.290;2022-07-05T05:21:22;21.60;78.30
14095;DHT22;18096;48.142;16.290;2022-07-05T05:23:48;21.60;78.20
14095;DHT22;18096;48.142;16.290;2022-07-05T05:26:14;21.60;78.40
14095;DHT22;18096;48.142;16.290;2022-07-05T05:28:39;21.50;78.30
14095;DHT22;18096;48.142;16.290;2022-07-05T05:31:06;21.50;78.40
14095;DHT22;18096;48.142;16.290;2022-07-05T05:33:31;21.50;78.40
14095;DHT22;18096;48.142;16.290;2022-07-05T05:35:57;21.40;78.20
14095;DHT22;18096;48.142;16.290;2022-07-05T05:38:23;21.40;78.50
14095;DHT22;18096;48.142;16.290;2022-07-05T05:40:49;21.40;78.40
14095;DHT22;18096;48.142;16.290;2022-07-05T05:43:14;21.30;78.60
14095;DHT22;18096;48.142;16.290;2022-07-05T05:45:40;21.30;78.80
14095;DHT22;18096;48.142;16.290;2022-07-05T05:48:06;21.20;79.00
14095;DHT22;18096;48.142;16.290;2022-07-05T05:50:37;21.20;79.10
14095;DHT22;18096;48.142;16.290;2022-07-05T05:53:04;21.10;79.10
14095;DHT22;18096;48.142;16.290;2022-07-05T05:55:31;21.10;79.30
14095;DHT22;18096;48.142;16.290;2022-07-05T05:57:57;21.00;79.70
14095;DHT22;18096;48.142;16.290;2022-07-05T06:00:35;21.00;79.40
14095;DHT22;18096;48.142;16.290;2022-07-05T06:03:01;21.10;79.90
14095;DHT22;18096;48.142;16.290;2022-07-05T06:05:26;21.20;80.10
14095;DHT22;18096;48.142;16.290;2022-07-05T06:07:54;21.30;79.20
14095;DHT22;18096;48.142;16.290;2022-07-05T06:10:25;21.40;78.50
14095;DHT22;18096;48.142;16.290;2022-07-05T06:12:53;21.40;77.90
14095;DHT22;18096;48.142;16.290;2022-07-05T06:15:19;21.40;78.00
14095;DHT22;18096;48.142;16.290;2022-07-05T06:17:45;21.30;78.00
14095;DHT22;18096;48.142;16.290;2022-07-05T06:20:16;21.30;78.00
14095;DHT22;18096;48.142;16.290;2022-07-05T06:22:42;21.40;77.80
14095;DHT22;18096;48.142;16.290;2022-07-05T06:25:09;21.40;78.00
14095;DHT22;18096;48.142;16.290;2022-07-05T06:27:42;21.50;78.10
14095;DHT22;18096;48.142;16.290;2022-07-05T06:30:09;21.40;78.00
14095;DHT22;18096;48.142;16.290;2022-07-05T06:32:35;21.50;77.50
14095;DHT22;18096;48.142;16.290;2022-07-05T06:35:01;21.50;77.30
14095;DHT22;18096;48.142;16.290;2022-07-05T06:37:26;21.50;76.80
14095;DHT22;18096;48.142;16.290;2022-07-05T06:39:52;21.40;77.10
14095;DHT22;18096;48.142;16.290;2022-07-05T06:42:18;21.30;77.30
14095;DHT22;18096;48.142;16.290;2022-07-05T06:44:43;21.20;77.20
14095;DHT22;18096;48.142;16.290;2022-07-05T06:47:09;21.20;77.90
14095;DHT22;18096;48.142;16.290;2022-07-05T06:49:35;21.10;77.50
14095;DHT22;18096;48.142;16.290;2022-07-05T06:52:01;21.10;77.60
14095;DHT22;18096;48.142;16.290;2022-07-05T06:54:27;21.10;77.90
14095;DHT22;18096;48.142;16.290;2022-07-05T06:56:52;21.10;78.20
14095;DHT22;18096;48.142;16.290;2022-07-05T06:59:21;21.10;77.90
14095;DHT22;18096;48.142;16.290;2022-07-05T07:01:47;21.10;77.80
14095;DHT22;18096;48.142;16.290;2022-07-05T07:04:13;21.10;78.10
14095;DHT22;18096;48.142;16.290;2022-07-05T07:06:38;21.10;78.10
14095;DHT22;18096;48.142;16.290;2022-07-05T07:09:04;21.10;77.90
14095;DHT22;18096;48.142;16.290;2022-07-05T07:11:46;21.10;78.10
14095;DHT22;18096;48.142;16.290;2022-07-05T07:14:13;21.20;78.00
14095;DHT22;18096;48.142;16.290;2022-07-05T07:16:38;21.20;77.60
14095;DHT22;18096;48.142;16.290;2022-07-05T07:19:04;21.20;77.50
14095;DHT22;18096;48.142;16.290;2022-07-05T07:21:30;21.20;77.40
14095;DHT22;18096;48.142;16.290;2022-07-05T07:23:55;21.20;77.40
14095;DHT22;18096;48.142;16.290;2022-07-05T07:26:21;21.20;77.00
14095;DHT22;18096;48.142;16.290;2022-07-05T07:28:46;21.30;76.80
14095;DHT22;18096;48.142;16.290;2022-07-05T07:31:12;21.20;77.20
14095;DHT22;18096;48.142;16.290;2022-07-05T07:33:38;21.30;76.60
14095;DHT22;18096;48.142;16.290;2022-07-05T07:36:04;21.30;76.80
14095;DHT22;18096;48.142;16.290;2022-07-05T07:38:29;21.30;76.70
14095;DHT22;18096;48.142;16.290;2022-07-05T07:40:55;21.30;76.60
14095;DHT22;18096;48.142;16.290;2022-07-05T07:43:21;21.40;76.70
14095;DHT22;18096;48.142;16.290;2022-07-05T07:45:48;21.40;76.60
14095;DHT22;18096;48.142;16.290;2022-07-05T07:48:13;21.40;76.50
14095;DHT22;18096;48.142;16.290;2022-07-05T07:50:39;21.50;76.20
14095;DHT22;18096;48.142;16.290;2022-07-05T07:53:05;21.50;76.20
14095;DHT22;18096;48.142;16.290;2022-07-05T07:55:31;21.60;75.80
14095;DHT22;18096;48.142;16.290;2022-07-05T07:57:56;21.60;75.50
14095;DHT22;18096;48.142;16.290;2022-07-05T08:00:22;21.60;75.20
14095;DHT22;18096;48.142;16.290;2022-07-05T08:02:47;21.70;75.00
14095;DHT22;18096;48.142;16.290;2022-07-05T08:05:13;21.70;74.80
14095;DHT22;18096;48.142;16.290;2022-07-05T08:07:39;21.70;74.50
14095;DHT22;18096;48.142;16.290;2022-07-05T08:10:05;21.70;74.90
14095;DHT22;18096;48.142;16.290;2022-07-05T08:12:31;21.70;74.90
14095;DHT22;18096;48.142;16.290;2022-07-05T08:14:57;21.60;74.70
14095;DHT22;18096;48.142;16.290;2022-07-05T08:17:22;21.60;74.70
14095;DHT22;18096;48.142;16.290;2022-07-05T08:19:48;21.50;74.70
14095;DHT22;18096;48.142;16.290;2022-07-05T08:22:32;21.50;74.80
14095;DHT22;18096;48.142;16.290;2022-07-05T08:24:58;21.50;75.00
14095;DHT22;18096;48.142;16.290;2022-07-05T08:27:24;21.50;75.10
14095;DHT22;18096;48.142;16.290;2022-07-05T08:29:50;21.50;75.00
14095;DHT22;18096;48.142;16.290;2022-07-05T08:32:16;21.50;75.30
14095;DHT22;18096;48.142;16.290;2022-07-05T08:34:42;21.50;74.90
14095;DHT22;18096;48.142;16.290;2022-07-05T08:37:08;21.50;75.40
14095;DHT22;18096;48.142;16.290;2022-07-05T08:39:35;21.50;75.10
14095;DHT22;18096;48.142;16.290;2022-07-05T08:42:00;21.40;75.20
14095;DHT22;18096;48.142;16.290;2022-07-05T08:44:33;21.40;75.30
14095;DHT22;18096;48.142;16.290;2022-07-05T08:47:09;21.40;75.00
14095;DHT22;18096;48.142;16.290;2022-07-05T08:49:38;21.40;74.90
14095;DHT22;18096;48.142;16.290;2022-07-05T08:52:04;21.40;75.10
14095;DHT22;18096;48.142;16.290;2022-07-05T08:54:32;21.30;75.30
14095;DHT22;18096;48.142;16.290;2022-07-05T08:56:58;21.30;75.70
14095;DHT22;18096;48.142;16.290;2022-07-05T08:59:24;21.30;76.00
14095;DHT22;18096;48.142;16.290;2022-07-05T09:01:50;21.30;75.70
14095;DHT22;18096;48.142;16.290;2022-07-05T09:04:17;21.30;75.70
14095;DHT22;18096;48.142;16.290;2022-07-05T09:06:46;21.30;75.80
14095;DHT22;18096;48.142;16.290;2022-07-05T09:09:12;21.30;76.20
14095;DHT22;18096;48.142;16.290;2022-07-05T09:11:41;21.30;75.90
14095;DHT22;18096;48.142;16.290;2022-07-05T09:14:25;21.30;75.80
14095;DHT22;18096;48.142;16.290;2022-07-05T09:16:52;21.30;75.90
14095;DHT22;18096;48.142;16.290;2022-07-05T09:19:18;21.30;76.20
14095;DHT22;18096;48.142;16.290;2022-07-05T09:21:44;21.20;76.10
14095;DHT22;18096;48.142;16.290;2022-07-05T09:24:10;21.30;76.10
14095;DHT22;18096;48.142;16.290;2022-07-05T09:26:42;21.20;76.30
14095;DHT22;18096;48.142;16.290;2022-07-05T09:29:11;21.30;76.20
14095;DHT22;18096;48.142;16.290;2022-07-05T09:31:38;21.30;76.10
14095;DHT22;18096;48.142;16.290;2022-07-05T09:34:12;21.30;76.10
14095;DHT22;18096;48.142;16.290;2022-07-05T09:37:01;21.30;75.80
14095;DHT22;18096;48.142;16.290;2022-07-05T09:42:18;21.20;75.90
14095;DHT22;18096;48.142;16.290;2022-07-05T09:44:46;21.20;75.50
14095;DHT22;18096;48.142;16.290;2022-07-05T09:47:17;21.20;75.50
14095;DHT22;18096;48.142;16.290;2022-07-05T09:49:53;21.30;75.30
14095;DHT22;18096;48.142;16.290;2022-07-05T09:52:41;21.30;75.20
14095;DHT22;18096;48.142;16.290;2022-07-05T09:55:16;21.30;75.30
14095;DHT22;18096;48.142;16.290;2022-07-05T09:57:46;21.30;75.20
14095;DHT22;18096;48.142;16.290;2022-07-05T10:00:21;21.30;75.40
14095;DHT22;18096;48.142;16.290;2022-07-05T10:02:48;21.30;75.00
14095;DHT22;18096;48.142;16.290;2022-07-05T10:05:21;21.30;75.00
14095;DHT22;18096;48.142;16.290;2022-07-05T10:07:52;21.30;75.00
14095;DHT22;18096;48.142;16.290;2022-07-05T10:10:18;21.40;75.10
14095;DHT22;18096;48.142;16.290;2022-07-05T10:12:46;21.40;75.20
14095;DHT22;18096;48.142;16.290;2022-07-05T10:15:14;21.40;75.30
14095;DHT22;18096;48.142;16.290;2022-07-05T10:17:42;21.40;75.20
14095;DHT22;18096;48.142;16.290;2022-07-05T10:20:24;21.30;75.60
14095;DHT22;18096;48.142;16.290;2022-07-05T10:22:50;21.30;75.70
14095;DHT22;18096;48.142;16.290;2022-07-05T10:25:16;21.20;76.30
14095;DHT22;18096;48.142;16.290;2022-07-05T10:27:43;21.00;76.80
14095;DHT22;18096;48.142;16.290;2022-07-05T10:30:10;20.90;77.50
14095;DHT22;18096;48.142;16.290;2022-07-05T10:32:36;20.90;78.40
14095;DHT22;18096;48.142;16.290;2022-07-05T10:35:03;20.90;78.30
14095;DHT22;18096;48.142;16.290;2022-07-05T10:37:33;20.80;78.80
14095;DHT22;18096;48.142;16.290;2022-07-05T10:40:01;20.60;79.60
14095;DHT22;18096;48.142;16.290;2022-07-05T10:42:58;20.50;80.00
14095;DHT22;18096;48.142;16.290;2022-07-05T10:45:31;20.40;81.00
14095;DHT22;18096;48.142;16.290;2022-07-05T11:03:52;20.30;83.10
14095;DHT22;18096;48.142;16.290;2022-07-05T11:11:32;20.40;82.20
14095;DHT22;18096;48.142;16.290;2022-07-05T11:13:59;20.50;82.40
14095;DHT22;18096;48.142;16.290;2022-07-05T11:16:34;20.50;81.90
14095;DHT22;18096;48.142;16.290;2022-07-05T11:19:09;20.50;82.10
14095;DHT22;18096;48.142;16.290;2022-07-05T11:21:37;20.50;81.60
14095;DHT22;18096;48.142;16.290;2022-07-05T11:26:51;20.40;81.80
14095;DHT22;18096;48.142;16.290;2022-07-05T11:29:52;20.40;81.60
14095;DHT22;18096;48.142;16.290;2022-07-05T11:34:56;20.40;82.20
14095;DHT22;18096;48.142;16.290;2022-07-05T11:42:46;20.40;82.70
14095;DHT22;18096;48.142;16.290;2022-07-05T11:45:12;20.40;82.40
14095;DHT22;18096;48.142;16.290;2022-07-05T11:47:38;20.50;82.30
14095;DHT22;18096;48.142;16.290;2022-07-05T11:50:04;20.50;82.00
14095;DHT22;18096;48.142;16.290;2022-07-05T11:52:34;20.40;81.80
14095;DHT22;18096;48.142;16.290;2022-07-05T11:55:03;20.40;81.80
14095;DHT22;18096;48.142;16.290;2022-07-05T11:57:29;20.40;81.50
14095;DHT22;18096;48.142;16.290;2022-07-05T11:59:55;20.40;81.70
14095;DHT22;18096;48.142;16.290;2022-07-05T12:02:20;20.30;81.90
14095;DHT22;18096;48.142;16.290;2022-07-05T12:04:54;20.20;82.50
14095;DHT22;18096;48.142;16.290;2022-07-05T12:07:33;20.20;82.60
14095;DHT22;18096;48.142;16.290;2022-07-05T12:10:00;20.20;83.10
14095;DHT22;18096;48.142;16.290;2022-07-05T12:12:45;20.20;83.30
14095;DHT22;18096;48.142;16.290;2022-07-05T12:15:18;20.20;83.00
14095;DHT22;18096;48.142;16.290;2022-07-05T12:17:45;20.30;83.10
14095;DHT22;18096;48.142;16.290;2022-07-05T12:20:13;20.40;82.90
14095;DHT22;18096;48.142;16.290;2022-07-05T12:22:42;20.40;82.50
14095;DHT22;18096;48.142;16.290;2022-07-05T12:25:12;20.50;82.00
14095;DHT22;18096;48.142;16.290;2022-07-05T12:27:40;20.50;81.90
14095;DHT22;18096;48.142;16.290;2022-07-05T12:30:06;20.50;81.30
14095;DHT22;18096;48.142;16.290;2022-07-05T12:32:34;20.60;81.20
14095;DHT22;18096;48.142;16.290;2022-07-05T12:35:02;20.60;81.40
14095;DHT22;18096;48.142;16.290;2022-07-05T12:37:28;20.70;81.60
14095;DHT22;18096;48.142;16.290;2022-07-05T12:40:06;20.70;80.50
14095;DHT22;18096;48.142;16.290;2022-07-05T12:42:36;20.60;80.60
14095;DHT22;18096;48.142;16.290;2022-07-05T12:45:10;20.60;80.30
14095;DHT22;18096;48.142;16.290;2022-07-05T12:48:08;20.50;80.00
14095;DHT22;18096;48.142;16.290;2022-07-05T12:50:49;20.50;80.10
14095;DHT22;18096;48.142;16.290;2022-07-05T12:53:15;20.50;80.20
14095;DHT22;18096;48.142;16.290;2022-07-05T12:59:00;20.60;79.60
14095;DHT22;18096;48.142;16.290;2022-07-05T13:01:29;20.70;79.60
14095;DHT22;18096;48.142;16.290;2022-07-05T13:06:51;20.90;79.10
14095;DHT22;18096;48.142;16.290;2022-07-05T13:09:38;21.10;78.10
14095;DHT22;18096;48.142;16.290;2022-07-05T13:12:11;21.20;78.30
14095;DHT22;18096;48.142;16.290;2022-07-05T13:14:47;21.30;78.00
14095;DHT22;18096;48.142;16.290;2022-07-05T13:17:14;21.40;77.20
14095;DHT22;18096;48.142;16.290;2022-07-05T13:19:42;21.50;76.30
14095;DHT22;18096;48.142;16.290;2022-07-05T13:22:08;21.60;76.40
14095;DHT22;18096;48.142;16.290;2022-07-05T13:24:34;21.60;76.80
14095;DHT22;18096;48.142;16.290;2022-07-05T13:27:00;21.70;76.60
14095;DHT22;18096;48.142;16.290;2022-07-05T13:29:26;21.80;76.20
14095;DHT22;18096;48.142;16.290;2022-07-05T13:31:52;21.90;75.70
14095;DHT22;18096;48.142;16.290;2022-07-05T13:34:17;21.90;75.50
14095;DHT22;18096;48.142;16.290;2022-07-05T13:36:43;21.90;75.10
14095;DHT22;18096;48.142;16.290;2022-07-05T13:39:10;21.90;74.60
14095;DHT22;18096;48.142;16.290;2022-07-05T13:41:36;22.00;74.80
14095;DHT22;18096;48.142;16.290;2022-07-05T13:44:03;22.00;75.10
14095;DHT22;18096;48.142;16.290;2022-07-05T13:46:28;22.00;74.80
14095;DHT22;18096;48.142;16.290;2022-07-05T13:48:54;21.90;75.40
14095;DHT22;18096;48.142;16.290;2022-07-05T13:51:20;21.90;75.60
14095;DHT22;18096;48.142;16.290;2022-07-05T13:53:45;21.90;75.70
14095;DHT22;18096;48.142;16.290;2022-07-05T13:56:11;21.80;75.50
14095;DHT22;18096;48.142;16.290;2022-07-05T13:58:37;21.90;75.90
14095;DHT22;18096;48.142;16.290;2022-07-05T14:01:03;21.80;76.10
14095;DHT22;18096;48.142;16.290;2022-07-05T14:03:29;21.80;76.10
14095;DHT22;18096;48.142;16.290;2022-07-05T14:05:55;21.80;76.20
14095;DHT22;18096;48.142;16.290;2022-07-05T14:08:21;21.70;76.20
14095;DHT22;18096;48.142;16.290;2022-07-05T14:10:51;21.80;76.60
14095;DHT22;18096;48.142;16.290;2022-07-05T14:13:18;21.70;76.70
14095;DHT22;18096;48.142;16.290;2022-07-05T14:15:45;21.70;76.00
14095;DHT22;18096;48.142;16.290;2022-07-05T14:18:11;21.70;75.80
14095;DHT22;18096;48.142;16.290;2022-07-05T14:20:37;21.70;75.80
14095;DHT22;18096;48.142;16.290;2022-07-05T14:23:03;21.70;75.90
14095;DHT22;18096;48.142;16.290;2022-07-05T14:25:29;21.70;75.80
14095;DHT22;18096;48.142;16.290;2022-07-05T14:27:54;21.70;76.10
14095;DHT22;18096;48.142;16.290;2022-07-05T14:30:20;21.70;76.10
14095;DHT22;18096;48.142;16.290;2022-07-05T14:32:48;21.70;76.30
14095;DHT22;18096;48.142;16.290;2022-07-05T14:35:15;21.80;76.50
14095;DHT22;18096;48.142;16.290;2022-07-05T14:37:40;21.70;76.60
14095;DHT22;18096;48.142;16.290;2022-07-05T14:40:06;21.80;76.90
14095;DHT22;18096;48.142;16.290;2022-07-05T14:42:33;21.70;76.40
14095;DHT22;18096;48.142;16.290;2022-07-05T14:44:58;21.80;76.60
14095;DHT22;18096;48.142;16.290;2022-07-05T14:47:24;21.80;76.00
14095;DHT22;18096;48.142;16.290;2022-07-05T14:49:52;21.80;76.10
14095;DHT22;18096;48.142;16.290;2022-07-05T14:52:19;21.90;75.90
14095;DHT22;18096;48.142;16.290;2022-07-05T14:54:45;21.90;75.50
14095;DHT22;18096;48.142;16.290;2022-07-05T14:57:10;21.90;75.50
14095;DHT22;18096;48.142;16.290;2022-07-05T14:59:36;22.00;75.30
14095;DHT22;18096;48.142;16.290;2022-07-05T15:02:02;22.10;74.50
14095;DHT22;18096;48.142;16.290;2022-07-05T15:04:29;22.10;74.60
14095;DHT22;18096;48.142;16.290;2022-07-05T15:06:55;22.10;74.70
14095;DHT22;18096;48.142;16.290;2022-07-05T15:09:20;22.30;74.70
14095;DHT22;18096;48.142;16.290;2022-07-05T15:11:46;22.40;74.70
14095;DHT22;18096;48.142;16.290;2022-07-05T15:14:12;22.50;73.80
14095;DHT22;18096;48.142;16.290;2022-07-05T15:16:38;22.60;73.30
14095;DHT22;18096;48.142;16.290;2022-07-05T15:19:06;22.60;73.60
14095;DHT22;18096;48.142;16.290;2022-07-05T15:21:32;22.60;73.40
14095;DHT22;18096;48.142;16.290;2022-07-05T15:23:57;22.60;73.50
14095;DHT22;18096;48.142;16.290;2022-07-05T15:26:23;22.50;73.70
14095;DHT22;18096;48.142;16.290;2022-07-05T15:28:49;22.50;73.70
14095;DHT22;18096;48.142;16.290;2022-07-05T15:31:15;22.40;74.10
14095;DHT22;18096;48.142;16.290;2022-07-05T15:33:41;22.40;75.10
14095;DHT22;18096;48.142;16.290;2022-07-05T15:36:06;22.30;74.20
14095;DHT22;18096;48.142;16.290;2022-07-05T15:38:32;22.30;74.40
14095;DHT22;18096;48.142;16.290;2022-07-05T15:40:59;22.30;74.80
14095;DHT22;18096;48.142;16.290;2022-07-05T15:43:24;22.30;75.10
14095;DHT22;18096;48.142;16.290;2022-07-05T15:45:52;22.40;75.20
14095;DHT22;18096;48.142;16.290;2022-07-05T15:48:19;22.50;75.00
14095;DHT22;18096;48.142;16.290;2022-07-05T15:50:45;22.60;74.70
14095;DHT22;18096;48.142;16.290;2022-07-05T15:53:10;22.60;74.40
14095;DHT22;18096;48.142;16.290;2022-07-05T15:55:36;22.70;74.20
14095;DHT22;18096;48.142;16.290;2022-07-05T15:58:02;22.70;73.40